Algoma, West Virginia
Current Conditions -  °F | °C
As of 11:52 AM on Friday 24 Oct 2014 (Local Time) from KBLF Reporting Station
Clear Clear  
Wind Chill: 53°   Ceiling: Unl
Heat Index: 53°   Visibility: 10mi
Dew Point: 42°   Wind: 7mph
Humidity: 66%   Direction: 320°NW
Pressure: 30.13"   Gusts: NA
Location:  37.3807°N, 81.4099°W
Report Text: KBLF 241552Z AUTO 32006KT 10SM CLR 12/06 A3013 RMK AO2 SLP196 T01170056
Loading
Personal Weather Stations






























Interactive Weather Map
Tropical Storm Tracking
New forecast layout! Learn more

10-Day Weather Forecast

Advertisements
Track Severe Weather on mobile